createdAt,value
2022-11-13T00:00:08.743Z,11.20
2022-11-13T00:02:35.793Z,11.37
2022-11-13T00:05:02.935Z,10.57
2022-11-13T00:07:30.102Z,10.57
2022-11-13T00:09:57.170Z,10.45
2022-11-13T00:12:24.197Z,10.82
2022-11-13T00:14:51.242Z,10.05
2022-11-13T00:17:18.330Z,12.30
2022-11-13T00:19:45.396Z,10.73
2022-11-13T00:22:12.460Z,10.18
2022-11-13T00:24:39.487Z,9.55
2022-11-13T00:27:06.529Z,11.18
2022-11-13T00:29:33.633Z,11.95
2022-11-13T00:32:00.914Z,10.52
2022-11-13T00:34:46.327Z,8.82
2022-11-13T00:37:14.503Z,8.95
2022-11-13T00:39:41.607Z,8.55
2022-11-13T00:42:08.621Z,8.00
2022-11-13T00:44:35.668Z,9.48
2022-11-13T00:47:02.729Z,9.32
2022-11-13T00:49:29.777Z,9.55
2022-11-13T00:51:56.917Z,10.65
2022-11-13T00:54:23.945Z,10.13
2022-11-13T00:56:50.975Z,9.65
2022-11-13T00:59:18.032Z,11.30
2022-11-13T01:01:45.119Z,10.80
2022-11-13T01:04:12.199Z,9.88
2022-11-13T01:06:39.349Z,9.25
2022-11-13T01:09:06.525Z,9.27
2022-11-13T01:11:33.600Z,9.90
2022-11-13T01:14:00.684Z,10.40
2022-11-13T01:16:32.449Z,10.10
2022-11-13T01:18:59.531Z,8.65
2022-11-13T01:21:27.644Z,8.80
2022-11-13T01:23:55.186Z,8.73
2022-11-13T01:26:23.912Z,8.57
2022-11-13T01:28:51.039Z,8.93
2022-11-13T01:31:20.079Z,8.45
2022-11-13T01:33:47.604Z,8.00
2022-11-13T01:36:16.845Z,8.50
2022-11-13T01:38:43.915Z,9.18
2022-11-13T01:41:22.799Z,9.77
2022-11-13T01:43:50.832Z,10.95
2022-11-13T01:46:17.800Z,10.15
2022-11-13T01:48:46.826Z,9.55
2022-11-13T01:51:17.112Z,9.17
2022-11-13T01:53:44.871Z,9.13
2022-11-13T01:56:12.293Z,10.00
2022-11-13T01:58:40.452Z,8.95
2022-11-13T02:01:07.528Z,8.63
2022-11-13T02:03:34.636Z,10.52
2022-11-13T02:06:02.020Z,8.88
2022-11-13T02:08:29.749Z,8.65
2022-11-13T02:10:57.292Z,8.00
2022-11-13T02:13:24.828Z,9.90
2022-11-13T02:15:52.302Z,10.80
2022-11-13T02:18:20.720Z,10.15
2022-11-13T02:20:58.541Z,9.68
2022-11-13T02:23:29.209Z,10.60
2022-11-13T02:25:55.859Z,10.00
2022-11-13T02:28:22.980Z,11.05
2022-11-13T02:30:50.001Z,10.25
2022-11-13T02:33:22.084Z,12.20
2022-11-13T02:35:49.215Z,12.30
2022-11-13T02:38:16.611Z,10.45
2022-11-13T02:40:43.719Z,11.07
2022-11-13T02:43:10.888Z,12.60
2022-11-13T02:45:39.003Z,10.98
2022-11-13T02:48:07.052Z,10.52
2022-11-13T02:50:34.574Z,10.68
2022-11-13T02:53:01.752Z,10.50
2022-11-13T02:55:28.956Z,10.20
2022-11-13T02:57:56.059Z,10.00
2022-11-13T03:00:23.113Z,10.80
2022-11-13T03:02:50.298Z,10.07
2022-11-13T03:05:17.362Z,9.82
2022-11-13T03:07:44.291Z,9.50
2022-11-13T03:10:11.941Z,9.93
2022-11-13T03:12:39.186Z,9.93
2022-11-13T03:15:06.620Z,10.23
2022-11-13T03:17:34.012Z,9.80
2022-11-13T03:20:01.114Z,9.60
2022-11-13T03:22:28.460Z,9.48
2022-11-13T03:24:55.516Z,10.07
2022-11-13T03:27:22.497Z,9.75
2022-11-13T03:29:49.598Z,9.80
2022-11-13T03:32:16.634Z,9.07
2022-11-13T03:34:43.666Z,9.50
2022-11-13T03:37:10.714Z,9.30
2022-11-13T03:39:37.744Z,9.45
2022-11-13T03:42:04.815Z,8.65
2022-11-13T03:44:31.958Z,8.13
2022-11-13T03:46:59.083Z,8.73
2022-11-13T03:49:26.170Z,7.78
2022-11-13T03:51:53.229Z,8.35
2022-11-13T03:54:20.278Z,9.60
2022-11-13T03:56:47.439Z,9.30
2022-11-13T03:59:14.461Z,9.10
2022-11-13T04:01:41.586Z,8.67
2022-11-13T04:04:08.710Z,9.40
2022-11-13T04:06:35.746Z,9.03
2022-11-13T04:09:02.757Z,8.33
2022-11-13T04:11:29.794Z,8.73
2022-11-13T04:13:56.906Z,9.02
2022-11-13T04:16:23.940Z,8.80
2022-11-13T04:18:51.006Z,8.55
2022-11-13T04:21:18.096Z,8.70
2022-11-13T04:23:45.182Z,9.48
2022-11-13T04:26:12.352Z,8.73
2022-11-13T04:28:39.423Z,8.80
2022-11-13T04:31:06.506Z,8.35
2022-11-13T04:33:33.565Z,8.55
2022-11-13T04:36:00.636Z,9.30
2022-11-13T04:38:28.030Z,9.10
2022-11-13T04:41:15.125Z,9.52
2022-11-13T04:43:42.212Z,9.47
2022-11-13T04:46:09.278Z,8.17
2022-11-13T04:48:36.381Z,8.30
2022-11-13T04:51:03.445Z,7.97
2022-11-13T04:53:30.515Z,7.50
2022-11-13T04:55:57.549Z,8.87
2022-11-13T04:58:24.679Z,8.30
2022-11-13T05:00:51.765Z,8.00
2022-11-13T05:03:18.938Z,7.65
2022-11-13T05:05:45.941Z,7.60
2022-11-13T05:08:13.100Z,7.00
2022-11-13T05:10:40.156Z,7.73
2022-11-13T05:13:07.188Z,7.60
2022-11-13T05:15:34.261Z,8.40
2022-11-13T05:18:01.308Z,8.40
2022-11-13T05:20:28.343Z,7.30
2022-11-13T05:22:55.480Z,6.75
2022-11-13T05:25:22.524Z,7.30
2022-11-13T05:27:49.575Z,6.85
2022-11-13T05:30:16.919Z,7.30
2022-11-13T05:32:43.589Z,7.20
2022-11-13T05:35:10.623Z,8.40
2022-11-13T05:37:37.724Z,7.40
2022-11-13T05:40:05.120Z,7.10
2022-11-13T05:42:32.191Z,8.20
2022-11-13T05:44:59.224Z,6.87
2022-11-13T05:47:25.912Z,6.93
2022-11-13T05:49:52.934Z,7.45
2022-11-13T05:52:20.012Z,7.15
2022-11-13T05:54:47.068Z,6.32
2022-11-13T05:57:14.086Z,7.45
2022-11-13T05:59:40.747Z,6.97
2022-11-13T06:02:07.875Z,5.77
2022-11-13T06:04:34.992Z,5.73
2022-11-13T06:07:02.112Z,5.85
2022-11-13T06:09:29.197Z,7.90
2022-11-13T06:11:56.237Z,6.32
2022-11-13T06:14:23.343Z,7.35
2022-11-13T06:16:50.460Z,8.32
2022-11-13T06:19:17.495Z,7.20
2022-11-13T06:21:44.543Z,6.22
2022-11-13T06:24:12.852Z,6.55
2022-11-13T06:26:40.616Z,6.72
2022-11-13T06:29:08.282Z,7.00
2022-11-13T06:31:36.067Z,6.50
2022-11-13T06:34:03.540Z,6.57
2022-11-13T06:36:32.203Z,7.43
2022-11-13T06:38:59.381Z,7.60
2022-11-13T06:41:29.492Z,7.10
2022-11-13T06:44:02.303Z,6.68
2022-11-13T06:46:30.179Z,6.75
2022-11-13T06:48:57.606Z,6.97
2022-11-13T06:51:27.910Z,7.28
2022-11-13T06:53:55.314Z,6.75
2022-11-13T06:56:22.673Z,5.93
2022-11-13T06:58:49.775Z,5.15
2022-11-13T07:01:19.393Z,5.20
2022-11-13T07:03:46.543Z,5.17
2022-11-13T07:06:16.105Z,5.30
2022-11-13T07:08:43.917Z,6.38
2022-11-13T07:11:11.860Z,6.40
2022-11-13T07:13:39.314Z,7.13
2022-11-13T07:16:16.255Z,6.70
2022-11-13T07:18:44.483Z,6.45
2022-11-13T07:21:13.171Z,5.28
2022-11-13T07:23:43.135Z,5.50
2022-11-13T07:26:11.210Z,6.57
2022-11-13T07:28:38.718Z,6.22
2022-11-13T07:31:06.128Z,6.78
2022-11-13T07:33:33.238Z,7.90
2022-11-13T07:36:00.420Z,8.15
2022-11-13T07:38:27.267Z,7.53
2022-11-13T07:40:54.871Z,7.73
2022-11-13T07:43:21.908Z,9.85
2022-11-13T07:45:54.452Z,9.73
2022-11-13T07:48:22.604Z,8.50
2022-11-13T07:50:49.868Z,7.85
2022-11-13T07:53:17.329Z,13.13
2022-11-13T07:55:44.691Z,10.60
2022-11-13T07:58:12.020Z,9.63
2022-11-13T08:00:39.134Z,7.93
2022-11-13T08:03:08.707Z,6.85
2022-11-13T08:05:36.187Z,7.65
2022-11-13T08:08:03.692Z,7.40
2022-11-13T08:10:30.996Z,7.77
2022-11-13T08:12:59.819Z,6.93
2022-11-13T08:15:26.983Z,6.95
2022-11-13T08:17:54.832Z,7.97
2022-11-13T08:20:22.099Z,8.40
2022-11-13T08:22:49.437Z,9.85
2022-11-13T08:25:16.831Z,11.23
2022-11-13T08:27:43.884Z,13.38
2022-11-13T08:30:11.138Z,13.68
2022-11-13T08:32:38.179Z,13.57
2022-11-13T08:35:05.478Z,9.15
2022-11-13T08:37:33.230Z,10.27
2022-11-13T08:40:00.285Z,11.30
2022-11-13T08:42:27.583Z,9.27
2022-11-13T08:44:54.622Z,9.20
2022-11-13T08:47:25.567Z,10.00
2022-11-13T08:49:56.128Z,11.70
2022-11-13T08:52:23.361Z,10.90
2022-11-13T08:54:50.388Z,10.67
2022-11-13T08:57:17.444Z,12.57
2022-11-13T08:59:44.474Z,12.60
2022-11-13T09:02:14.675Z,12.23
2022-11-13T09:04:42.330Z,11.05
2022-11-13T09:07:09.507Z,9.57
2022-11-13T09:09:37.213Z,9.60
2022-11-13T09:12:04.570Z,9.10
2022-11-13T09:14:31.630Z,9.23
2022-11-13T09:16:58.809Z,9.50
2022-11-13T09:19:26.121Z,9.80
2022-11-13T09:21:53.228Z,8.50
2022-11-13T09:24:20.279Z,7.70
2022-11-13T09:26:47.305Z,7.50
2022-11-13T09:29:14.431Z,6.45
2022-11-13T09:31:41.587Z,7.40
2022-11-13T09:34:09.114Z,6.85
2022-11-13T09:36:36.576Z,7.10
2022-11-13T09:39:04.467Z,6.97
2022-11-13T09:41:35.347Z,7.95
2022-11-13T09:44:04.516Z,8.30
2022-11-13T09:46:51.499Z,7.90
2022-11-13T09:49:24.810Z,7.82
2022-11-13T09:51:53.655Z,7.53
2022-11-13T09:54:21.201Z,7.63
2022-11-13T09:56:55.248Z,7.32
2022-11-13T09:59:23.469Z,6.78
2022-11-13T10:01:54.781Z,6.77
2022-11-13T10:04:38.165Z,6.13
2022-11-13T10:07:05.728Z,6.70
2022-11-13T10:09:37.881Z,6.20
2022-11-13T10:12:07.605Z,6.60
2022-11-13T10:14:42.125Z,6.35
2022-11-13T10:17:15.018Z,6.03
2022-11-13T10:19:48.458Z,6.10
2022-11-13T10:22:34.580Z,6.70
2022-11-13T10:25:07.246Z,6.15
2022-11-13T10:27:34.361Z,6.47
2022-11-13T10:30:01.575Z,6.47
2022-11-13T10:32:32.124Z,7.13
2022-11-13T10:35:01.819Z,6.80
2022-11-13T10:37:48.825Z,8.10
2022-11-13T10:40:32.683Z,6.85
2022-11-13T10:43:07.192Z,6.65
2022-11-13T10:45:34.333Z,6.95
2022-11-13T10:48:05.321Z,7.80
2022-11-13T10:50:33.187Z,8.85
2022-11-13T10:53:00.276Z,8.00
2022-11-13T10:55:38.358Z,6.70
2022-11-13T10:58:12.983Z,6.75
2022-11-13T11:00:41.512Z,6.63
2022-11-13T11:03:09.810Z,6.53
2022-11-13T11:05:36.887Z,6.78
2022-11-13T11:08:07.293Z,5.78
2022-11-13T11:10:36.208Z,6.53
2022-11-13T11:13:04.236Z,6.28
2022-11-13T11:15:49.564Z,6.05
2022-11-13T11:18:36.717Z,6.00
2022-11-13T11:21:07.671Z,5.97
2022-11-13T11:23:45.360Z,6.13
2022-11-13T11:26:24.281Z,5.90
2022-11-13T11:28:58.477Z,5.40
2022-11-13T11:31:29.068Z,5.75
2022-11-13T11:34:04.998Z,5.63
2022-11-13T11:36:34.115Z,5.88
2022-11-13T11:39:01.222Z,6.03
2022-11-13T11:41:33.449Z,6.05
2022-11-13T11:44:04.435Z,5.65
2022-11-13T11:46:31.494Z,5.78
2022-11-13T11:49:00.542Z,6.50
2022-11-13T11:51:31.404Z,5.90
2022-11-13T11:53:58.445Z,5.38
2022-11-13T11:56:28.684Z,6.13
2022-11-13T11:59:03.225Z,6.15
2022-11-13T12:01:37.669Z,5.65
2022-11-13T12:04:12.302Z,5.30
2022-11-13T12:06:39.279Z,5.93
2022-11-13T12:09:13.428Z,8.63
2022-11-13T12:11:44.849Z,6.20
2022-11-13T12:14:19.328Z,5.57
2022-11-13T12:16:52.073Z,5.53
2022-11-13T12:19:26.572Z,5.40
2022-11-13T12:21:53.622Z,5.50
2022-11-13T12:24:40.598Z,5.82
2022-11-13T12:27:20.459Z,5.57
2022-11-13T12:29:55.042Z,5.97
2022-11-13T12:32:25.420Z,6.03
2022-11-13T12:34:53.914Z,5.63
2022-11-13T12:37:26.697Z,5.25
2022-11-13T12:39:53.740Z,5.18
2022-11-13T12:42:40.729Z,5.25
2022-11-13T12:45:22.989Z,5.80
2022-11-13T12:47:52.050Z,6.45
2022-11-13T12:50:32.109Z,6.15
2022-11-13T12:52:59.909Z,5.60
2022-11-13T12:55:28.790Z,6.35
2022-11-13T12:57:57.240Z,6.90
2022-11-13T13:00:26.692Z,7.03
2022-11-13T13:02:58.536Z,6.82
2022-11-13T13:05:28.853Z,5.90
2022-11-13T13:08:05.155Z,4.95
2022-11-13T13:10:37.052Z,5.17
2022-11-13T13:13:26.847Z,4.65
2022-11-13T13:15:56.571Z,4.70
2022-11-13T13:18:26.794Z,4.40
2022-11-13T13:21:13.983Z,4.40
2022-11-13T13:23:42.474Z,4.47
2022-11-13T13:26:31.389Z,4.70
2022-11-13T13:29:02.900Z,4.30
2022-11-13T13:31:52.851Z,4.30
2022-11-13T13:34:29.902Z,4.07
2022-11-13T13:37:04.487Z,3.90
2022-11-13T13:39:51.439Z,3.70
2022-11-13T13:42:27.565Z,3.80
2022-11-13T13:45:14.518Z,3.50
2022-11-13T13:47:45.871Z,3.30
2022-11-13T13:50:17.875Z,3.25
2022-11-13T13:52:45.216Z,3.28
2022-11-13T13:55:18.435Z,3.45
2022-11-13T13:57:45.627Z,3.20
2022-11-13T14:00:13.665Z,3.37
2022-11-13T14:02:49.087Z,3.80
2022-11-13T14:05:24.343Z,3.35
2022-11-13T14:07:51.411Z,3.20
2022-11-13T14:10:20.402Z,3.28
2022-11-13T14:12:47.763Z,3.55
2022-11-13T14:15:21.958Z,3.40
2022-11-13T14:17:48.999Z,3.63
2022-11-13T14:20:16.743Z,3.70
2022-11-13T14:22:44.834Z,3.40
2022-11-13T14:25:22.687Z,3.57
2022-11-13T14:27:49.865Z,3.45
2022-11-13T14:30:22.765Z,3.70
2022-11-13T14:32:49.854Z,3.95
2022-11-13T14:35:20.047Z,3.90
2022-11-13T14:37:48.368Z,3.50
2022-11-13T14:40:33.796Z,4.07
2022-11-13T14:43:03.188Z,3.45
2022-11-13T14:45:31.469Z,3.60
2022-11-13T14:47:59.610Z,3.90
2022-11-13T14:50:35.619Z,3.90
2022-11-13T14:53:03.989Z,3.78
2022-11-13T14:55:32.405Z,3.97
2022-11-13T14:57:59.775Z,3.60
2022-11-13T15:00:32.011Z,3.60
2022-11-13T15:02:59.485Z,3.90
2022-11-13T15:05:26.676Z,3.88
2022-11-13T15:07:55.055Z,3.88
2022-11-13T15:10:23.306Z,3.90
2022-11-13T15:12:50.422Z,3.72
2022-11-13T15:15:19.138Z,3.80
2022-11-13T15:17:47.191Z,3.33
2022-11-13T15:20:16.652Z,3.72
2022-11-13T15:22:43.738Z,3.83
2022-11-13T15:25:15.210Z,3.60
2022-11-13T15:27:43.456Z,3.88
2022-11-13T15:30:11.250Z,3.88
2022-11-13T15:32:38.355Z,4.30
2022-11-13T15:35:07.743Z,4.30
2022-11-13T15:37:34.779Z,4.72
2022-11-13T15:40:01.967Z,4.70
2022-11-13T15:42:32.444Z,4.60
2022-11-13T15:44:59.663Z,5.50
2022-11-13T15:47:28.090Z,5.20
2022-11-13T15:50:16.812Z,5.78
2022-11-13T15:52:44.297Z,6.00
2022-11-13T15:55:21.695Z,5.70
2022-11-13T15:57:49.073Z,5.47
2022-11-13T16:00:17.442Z,5.90
2022-11-13T16:02:45.515Z,5.50
2022-11-13T16:05:12.550Z,5.80
2022-11-13T16:07:42.209Z,5.90
2022-11-13T16:10:11.030Z,6.03
2022-11-13T16:12:38.600Z,6.55
2022-11-13T16:15:05.952Z,5.85
2022-11-13T16:17:34.286Z,6.15
2022-11-13T16:20:01.450Z,8.18
2022-11-13T16:22:28.555Z,7.20
2022-11-13T16:24:55.610Z,6.22
2022-11-13T16:27:31.033Z,6.38
2022-11-13T16:30:02.269Z,6.22
2022-11-13T16:32:32.485Z,7.55
2022-11-13T16:34:59.533Z,7.95
2022-11-13T16:37:26.703Z,7.95
2022-11-13T16:39:53.786Z,10.45
2022-11-13T16:42:20.829Z,9.30
2022-11-13T16:44:48.017Z,7.80
2022-11-13T16:47:22.527Z,7.97
2022-11-13T16:49:51.626Z,12.10
2022-11-13T16:52:18.738Z,15.95
2022-11-13T16:54:45.770Z,10.03
2022-11-13T16:57:13.937Z,8.73
2022-11-13T16:59:41.247Z,10.50
2022-11-13T17:02:14.055Z,9.95
2022-11-13T17:04:41.248Z,10.35
2022-11-13T17:07:10.083Z,11.52
2022-11-13T17:09:39.935Z,11.27
2022-11-13T17:12:06.983Z,10.43
2022-11-13T17:14:35.014Z,13.13
2022-11-13T17:17:02.593Z,17.08
2022-11-13T17:19:29.808Z,11.23
2022-11-13T17:21:57.120Z,12.05
2022-11-13T17:24:24.136Z,11.18
2022-11-13T17:26:50.851Z,10.23
2022-11-13T17:29:18.035Z,10.45
2022-11-13T17:31:45.134Z,10.65
2022-11-13T17:34:12.143Z,10.55
2022-11-13T17:36:39.214Z,11.40
2022-11-13T17:39:06.287Z,10.02
2022-11-13T17:41:34.095Z,11.18
2022-11-13T17:44:01.679Z,10.63
2022-11-13T17:46:28.799Z,11.70
2022-11-13T17:48:56.053Z,11.05
2022-11-13T17:51:23.132Z,11.77
2022-11-13T17:53:50.179Z,11.68
2022-11-13T17:56:20.041Z,12.02
2022-11-13T17:58:47.107Z,12.30
2022-11-13T18:01:15.735Z,13.35
2022-11-13T18:03:43.250Z,12.77
2022-11-13T18:06:13.350Z,12.90
2022-11-13T18:08:41.522Z,13.77
2022-11-13T18:11:09.632Z,12.90
2022-11-13T18:13:37.251Z,14.23
2022-11-13T18:16:06.542Z,14.23
2022-11-13T18:18:33.919Z,13.90
2022-11-13T18:21:09.736Z,15.07
2022-11-13T18:23:46.147Z,15.52
2022-11-13T18:26:15.391Z,14.75
2022-11-13T18:28:42.462Z,15.27
2022-11-13T18:31:10.571Z,15.77
2022-11-13T18:33:37.627Z,15.90
2022-11-13T18:36:04.963Z,15.30
2022-11-13T18:38:32.307Z,14.87
2022-11-13T18:41:01.707Z,15.30
2022-11-13T18:43:29.009Z,15.15
2022-11-13T18:45:57.241Z,15.90
2022-11-13T18:48:24.319Z,16.90
2022-11-13T18:50:59.512Z,15.95
2022-11-13T18:53:27.349Z,16.80
2022-11-13T18:55:58.866Z,16.42
2022-11-13T18:58:25.883Z,17.85
2022-11-13T19:00:53.003Z,17.38
2022-11-13T19:03:20.037Z,17.98
2022-11-13T19:05:47.180Z,20.42
2022-11-13T19:08:14.437Z,17.58
2022-11-13T19:10:42.128Z,18.58
2022-11-13T19:13:09.696Z,18.17
2022-11-13T19:15:37.795Z,18.23
2022-11-13T19:18:05.806Z,17.75
2022-11-13T19:20:33.051Z,18.75
2022-11-13T19:23:01.436Z,18.67
2022-11-13T19:25:31.318Z,19.83
2022-11-13T19:27:58.373Z,17.73
2022-11-13T19:30:25.446Z,19.38
2022-11-13T19:32:52.502Z,19.50
2022-11-13T19:35:19.586Z,17.80
2022-11-13T19:37:46.609Z,18.77
2022-11-13T19:40:13.690Z,18.35
2022-11-13T19:42:41.979Z,19.25
2022-11-13T19:45:09.418Z,20.70
2022-11-13T19:47:36.522Z,19.65
2022-11-13T19:50:03.627Z,20.23
2022-11-13T19:52:30.702Z,20.67
2022-11-13T19:54:57.778Z,21.13
2022-11-13T19:57:24.833Z,22.20
2022-11-13T19:59:51.886Z,23.30
2022-11-13T20:02:18.934Z,24.57
2022-11-13T20:04:46.001Z,26.00
2022-11-13T20:07:13.095Z,25.02
2022-11-13T20:09:40.321Z,22.17
2022-11-13T20:12:07.470Z,20.13
2022-11-13T20:14:38.388Z,20.00
2022-11-13T20:17:05.766Z,18.65
2022-11-13T20:19:32.880Z,12.73
2022-11-13T20:21:59.934Z,13.43
2022-11-13T20:24:27.222Z,12.40
2022-11-13T20:26:54.337Z,12.45
2022-11-13T20:29:21.362Z,13.23
2022-11-13T20:31:49.048Z,12.55
2022-11-13T20:34:16.171Z,12.10
2022-11-13T20:36:42.826Z,12.77
2022-11-13T20:39:09.941Z,11.77
2022-11-13T20:41:37.195Z,12.18
2022-11-13T20:44:04.290Z,12.68
2022-11-13T20:46:31.408Z,13.57
2022-11-13T20:48:58.681Z,13.75
2022-11-13T20:51:27.135Z,14.98
2022-11-13T20:53:54.762Z,15.52
2022-11-13T20:56:23.384Z,17.88
2022-11-13T20:58:50.262Z,19.15
2022-11-13T21:01:19.016Z,17.47
2022-11-13T21:03:46.486Z,16.08
2022-11-13T21:06:15.742Z,14.93
2022-11-13T21:08:43.438Z,15.43
2022-11-13T21:11:13.310Z,14.27
2022-11-13T21:13:40.382Z,12.70
2022-11-13T21:16:08.145Z,12.88
2022-11-13T21:18:35.670Z,13.88
2022-11-13T21:21:05.836Z,13.02
2022-11-13T21:23:32.919Z,12.65
2022-11-13T21:26:01.200Z,15.02
2022-11-13T21:28:32.398Z,12.95
2022-11-13T21:31:02.018Z,12.65
2022-11-13T21:33:29.449Z,12.95
2022-11-13T21:35:56.609Z,12.73
2022-11-13T21:38:23.698Z,12.35
2022-11-13T21:41:18.258Z,12.73
2022-11-13T21:43:45.597Z,16.77
2022-11-13T21:46:14.365Z,16.08
2022-11-13T21:48:42.213Z,15.45
2022-11-13T21:51:09.684Z,15.43
2022-11-13T21:53:36.713Z,14.60
2022-11-13T21:56:04.048Z,13.98
2022-11-13T21:58:31.991Z,14.77
2022-11-13T22:00:59.356Z,16.45
2022-11-13T22:03:27.240Z,16.52
2022-11-13T22:06:14.253Z,16.98
2022-11-13T22:08:41.188Z,16.13
2022-11-13T22:11:08.464Z,16.13
2022-11-13T22:13:35.577Z,15.77
2022-11-13T22:16:04.542Z,15.40
2022-11-13T22:18:31.908Z,14.82
2022-11-13T22:21:01.292Z,18.20
2022-11-13T22:23:28.343Z,16.00
2022-11-13T22:26:03.651Z,15.93
2022-11-13T22:28:31.317Z,15.25
2022-11-13T22:30:58.644Z,14.25
2022-11-13T22:33:27.719Z,15.55
2022-11-13T22:36:00.589Z,15.07
2022-11-13T22:38:27.927Z,18.05
2022-11-13T22:40:55.298Z,19.88
2022-11-13T22:43:22.372Z,21.10
2022-11-13T22:45:49.419Z,17.10
2022-11-13T22:48:16.545Z,15.02
2022-11-13T22:50:43.585Z,15.93
2022-11-13T22:53:14.519Z,16.50
2022-11-13T22:55:41.607Z,17.58
2022-11-13T22:58:09.461Z,15.93
2022-11-13T23:00:36.591Z,15.00
2022-11-13T23:03:03.770Z,16.60
2022-11-13T23:05:30.888Z,17.10
2022-11-13T23:07:57.868Z,15.77
2022-11-13T23:10:25.596Z,14.33
2022-11-13T23:12:52.761Z,15.27
2022-11-13T23:15:19.882Z,16.58
2022-11-13T23:17:47.012Z,14.82
2022-11-13T23:20:14.330Z,16.53
2022-11-13T23:22:41.451Z,16.42
2022-11-13T23:25:08.779Z,15.68
2022-11-13T23:27:35.488Z,16.13
2022-11-13T23:30:02.543Z,14.95
2022-11-13T23:32:29.678Z,13.80
2022-11-13T23:34:59.482Z,15.10
2022-11-13T23:37:27.166Z,15.27
2022-11-13T23:39:54.754Z,14.70
2022-11-13T23:42:39.322Z,13.95
2022-11-13T23:45:08.976Z,14.77
2022-11-13T23:47:36.049Z,14.73
2022-11-13T23:50:03.156Z,16.38
2022-11-13T23:52:30.331Z,15.88
2022-11-13T23:54:57.369Z,14.80
2022-11-13T23:57:24.416Z,14.23
2022-11-13T23:59:51.077Z,14.85
